createdAt,value
2018-08-10T00:01:05.038Z,85.50
2018-08-10T00:03:33.495Z,85.70
2018-08-10T00:06:01.853Z,86.00
2018-08-10T00:08:29.918Z,85.40
2018-08-10T00:10:57.863Z,85.50
2018-08-10T00:13:26.639Z,85.90
2018-08-10T00:15:54.816Z,86.10
2018-08-10T00:18:23.106Z,86.20
2018-08-10T00:20:51.997Z,85.70
2018-08-10T00:23:20.210Z,86.00
2018-08-10T00:25:48.711Z,86.20
2018-08-10T00:28:16.767Z,86.10
2018-08-10T00:30:44.860Z,86.20
2018-08-10T00:33:13.464Z,86.40
2018-08-10T00:35:41.638Z,87.00
2018-08-10T00:38:09.817Z,86.90
2018-08-10T00:40:38.144Z,87.30
2018-08-10T00:43:06.141Z,87.20
2018-08-10T00:45:34.137Z,87.70
2018-08-10T00:48:02.423Z,88.00
2018-08-10T00:50:30.274Z,88.00
2018-08-10T00:52:58.342Z,88.10
2018-08-10T00:55:26.535Z,88.10
2018-08-10T00:57:54.688Z,88.40
2018-08-10T01:00:24.001Z,88.50
2018-08-10T01:02:52.912Z,88.20
2018-08-10T01:05:20.788Z,87.40
2018-08-10T01:07:48.904Z,87.30
2018-08-10T01:10:18.419Z,87.10
2018-08-10T01:12:47.200Z,86.90
2018-08-10T01:15:16.168Z,85.90
2018-08-10T01:17:44.775Z,85.80
2018-08-10T01:20:18.030Z,85.80
2018-08-10T01:23:16.969Z,85.60
2018-08-10T01:25:45.133Z,85.70
2018-08-10T01:28:13.317Z,85.90
2018-08-10T01:30:41.423Z,85.30
2018-08-10T01:33:09.515Z,85.40
2018-08-10T01:35:37.415Z,85.40
2018-08-10T01:38:05.207Z,85.20
2018-08-10T01:40:33.425Z,85.00
2018-08-10T01:43:01.440Z,84.70
2018-08-10T01:45:29.112Z,85.60
2018-08-10T01:47:57.257Z,84.80
2018-08-10T01:50:25.165Z,84.30
2018-08-10T01:52:53.290Z,84.60
2018-08-10T01:55:21.518Z,84.80
2018-08-10T01:57:49.709Z,85.00
2018-08-10T02:00:18.037Z,85.20
2018-08-10T02:02:46.356Z,85.10
2018-08-10T02:05:15.356Z,85.40
2018-08-10T02:07:43.708Z,85.10
2018-08-10T02:10:16.175Z,85.30
2018-08-10T02:12:45.196Z,85.60
2018-08-10T02:15:15.360Z,85.20
2018-08-10T02:17:43.501Z,84.10
2018-08-10T02:20:12.988Z,83.80
2018-08-10T02:22:40.893Z,84.00
2018-08-10T02:25:10.711Z,84.10
2018-08-10T02:27:39.020Z,84.30
2018-08-10T02:30:08.991Z,84.70
2018-08-10T02:32:37.389Z,84.90
2018-08-10T02:35:06.071Z,84.40
2018-08-10T02:37:34.268Z,84.60
2018-08-10T02:40:02.760Z,84.30
2018-08-10T02:42:30.990Z,84.40
2018-08-10T02:44:58.986Z,84.00
2018-08-10T02:47:26.999Z,84.10
2018-08-10T02:49:55.669Z,83.90
2018-08-10T02:52:24.262Z,84.10
2018-08-10T02:54:53.123Z,83.80
2018-08-10T02:57:36.205Z,83.90
2018-08-10T03:00:05.983Z,83.90
2018-08-10T03:02:34.309Z,83.70
2018-08-10T03:05:02.352Z,83.70
2018-08-10T03:07:30.493Z,83.60
2018-08-10T03:09:58.609Z,83.30
2018-08-10T03:12:26.880Z,83.30
2018-08-10T03:14:55.490Z,82.80
2018-08-10T03:17:23.490Z,82.80
2018-08-10T03:19:51.809Z,83.10
2018-08-10T03:22:19.977Z,82.30
2018-08-10T03:24:47.687Z,82.30
2018-08-10T03:27:15.627Z,82.90
2018-08-10T03:29:43.486Z,81.60
2018-08-10T03:32:11.989Z,82.00
2018-08-10T03:34:40.124Z,81.80
2018-08-10T03:37:08.186Z,81.60
2018-08-10T03:39:36.068Z,81.40
2018-08-10T03:42:04.196Z,81.40
2018-08-10T03:44:32.384Z,81.70
2018-08-10T03:47:00.211Z,81.70
2018-08-10T03:49:28.523Z,81.70
2018-08-10T03:51:56.954Z,81.90
2018-08-10T03:54:24.844Z,81.60
2018-08-10T03:56:53.105Z,82.20
2018-08-10T03:59:21.310Z,81.90
2018-08-10T04:01:49.327Z,81.90
2018-08-10T04:04:17.663Z,81.80
2018-08-10T04:06:45.515Z,81.50
2018-08-10T04:09:13.728Z,81.40
2018-08-10T04:11:42.302Z,81.80
2018-08-10T04:14:10.694Z,82.20
2018-08-10T04:16:38.666Z,82.30
2018-08-10T04:19:06.908Z,81.90
2018-08-10T04:21:35.918Z,82.30
2018-08-10T04:24:04.249Z,82.30
2018-08-10T04:26:31.977Z,82.40
2018-08-10T04:28:59.809Z,82.30
2018-08-10T04:31:27.746Z,82.40
2018-08-10T04:33:56.026Z,82.90
2018-08-10T04:36:24.324Z,83.00
2018-08-10T04:38:52.265Z,82.80
2018-08-10T04:41:20.699Z,82.80
2018-08-10T04:43:49.338Z,82.80
2018-08-10T04:46:18.477Z,82.70
2018-08-10T04:48:46.577Z,82.80
2018-08-10T04:51:14.526Z,83.00
2018-08-10T04:53:42.592Z,83.30
2018-08-10T04:56:11.732Z,83.20
2018-08-10T04:58:39.920Z,83.10
2018-08-10T05:01:08.001Z,83.10
2018-08-10T05:03:36.165Z,83.10
2018-08-10T05:06:04.232Z,83.10
2018-08-10T05:08:32.036Z,83.70
2018-08-10T05:11:00.291Z,83.90
2018-08-10T05:13:28.662Z,83.90
2018-08-10T05:15:57.532Z,84.10
2018-08-10T05:18:25.562Z,83.00
2018-08-10T05:20:53.723Z,83.30
2018-08-10T05:23:21.897Z,83.70
2018-08-10T05:29:06.685Z,83.40
2018-08-10T05:31:36.197Z,84.00
2018-08-10T05:34:04.266Z,83.00
2018-08-10T05:36:32.402Z,84.10
2018-08-10T05:39:00.734Z,82.20
2018-08-10T05:41:29.023Z,81.30
2018-08-10T05:43:57.198Z,82.50
2018-08-10T05:46:25.384Z,82.50
2018-08-10T05:48:53.365Z,81.30
2018-08-10T05:51:21.293Z,81.00
2018-08-10T05:53:49.040Z,80.80
2018-08-10T05:56:17.573Z,80.70
2018-08-10T05:58:45.546Z,80.80
2018-08-10T06:01:13.665Z,80.40
2018-08-10T06:03:41.716Z,79.80
2018-08-10T06:06:09.710Z,80.30
2018-08-10T06:08:37.976Z,79.50
2018-08-10T06:11:06.402Z,78.80
2018-08-10T06:13:34.708Z,77.60
2018-08-10T06:16:02.585Z,77.70
2018-08-10T06:18:30.805Z,76.90
2018-08-10T06:20:59.549Z,77.10
2018-08-10T06:23:28.323Z,76.30
2018-08-10T06:25:56.966Z,77.80
2018-08-10T06:28:24.950Z,77.30
2018-08-10T06:30:53.088Z,75.40
2018-08-10T06:33:21.151Z,75.70
2018-08-10T06:35:50.009Z,74.90
2018-08-10T06:38:18.542Z,75.10
2018-08-10T06:40:46.674Z,74.40
2018-08-10T06:43:14.476Z,74.60
2018-08-10T06:45:42.709Z,74.90
2018-08-10T06:48:10.916Z,74.70
2018-08-10T06:50:39.309Z,74.60
2018-08-10T06:53:07.619Z,74.40
2018-08-10T06:55:35.519Z,74.70
2018-08-10T06:58:03.674Z,72.50
2018-08-10T07:00:32.479Z,72.80
2018-08-10T07:03:00.641Z,72.50
2018-08-10T07:05:29.414Z,70.90
2018-08-10T07:07:57.521Z,71.60
2018-08-10T07:10:25.596Z,71.50
2018-08-10T07:12:54.320Z,71.20
2018-08-10T07:15:22.649Z,70.70
2018-08-10T07:17:50.737Z,68.20
2018-08-10T07:20:18.713Z,66.30
2018-08-10T07:22:47.687Z,67.30
2018-08-10T07:25:16.123Z,68.40
2018-08-10T07:27:44.432Z,69.10
2018-08-10T07:30:12.963Z,68.00
2018-08-10T07:32:41.107Z,71.10
2018-08-10T07:35:09.015Z,69.00
2018-08-10T07:37:37.112Z,67.20
2018-08-10T07:40:05.407Z,67.50
2018-08-10T07:42:33.749Z,67.70
2018-08-10T07:45:01.980Z,66.60
2018-08-10T07:47:30.306Z,66.30
2018-08-10T07:49:58.286Z,66.60
2018-08-10T07:52:27.603Z,65.50
2018-08-10T07:54:55.721Z,64.70
2018-08-10T07:57:23.898Z,64.50
2018-08-10T07:59:51.991Z,64.60
2018-08-10T08:02:20.948Z,64.30
2018-08-10T08:04:48.747Z,64.40
2018-08-10T08:07:16.861Z,64.60
2018-08-10T08:09:45.264Z,63.40
2018-08-10T08:12:13.499Z,62.00
2018-08-10T08:14:41.891Z,62.70
2018-08-10T08:17:10.199Z,63.20
2018-08-10T08:19:38.349Z,61.20
2018-08-10T08:22:16.963Z,62.40
2018-08-10T08:24:45.527Z,63.40
2018-08-10T08:27:14.975Z,64.50
2018-08-10T08:29:43.277Z,64.00
2018-08-10T08:32:11.953Z,62.60
2018-08-10T08:34:40.450Z,61.70
2018-08-10T08:37:08.869Z,59.50
2018-08-10T08:40:41.663Z,61.30
2018-08-10T08:43:10.489Z,61.20
2018-08-10T08:46:00.839Z,60.30
2018-08-10T08:48:30.820Z,60.10
2018-08-10T08:51:01.249Z,61.10
2018-08-10T08:53:29.705Z,60.30
2018-08-10T08:56:03.106Z,61.10
2018-08-10T08:58:31.602Z,59.80
2018-08-10T09:01:00.222Z,60.70
2018-08-10T09:03:39.823Z,61.50
2018-08-10T09:06:08.555Z,60.30
2018-08-10T09:08:36.840Z,58.40
2018-08-10T09:11:06.637Z,60.70
2018-08-10T09:14:57.049Z,57.90
2018-08-10T09:17:25.604Z,57.20
2018-08-10T09:19:55.493Z,58.70
2018-08-10T09:22:24.599Z,58.50
2018-08-10T09:24:53.212Z,59.00
2018-08-10T09:27:21.733Z,57.30
2018-08-10T09:29:49.674Z,57.60
2018-08-10T09:32:18.088Z,58.60
2018-08-10T09:34:47.540Z,57.40
2018-08-10T09:37:16.045Z,57.90
2018-08-10T09:39:45.219Z,58.20
2018-08-10T09:42:14.766Z,57.70
2018-08-10T09:44:43.786Z,57.30
2018-08-10T09:47:12.018Z,57.50
2018-08-10T09:49:46.698Z,56.50
2018-08-10T09:52:14.573Z,54.90
2018-08-10T09:55:35.080Z,55.90
2018-08-10T09:58:04.948Z,55.90
2018-08-10T10:00:38.686Z,56.20
2018-08-10T10:03:14.744Z,55.50
2018-08-10T10:05:43.700Z,55.20
2018-08-10T10:08:12.530Z,53.90
2018-08-10T10:10:40.753Z,53.90
2018-08-10T10:13:09.970Z,54.90
2018-08-10T10:15:38.420Z,53.50
2018-08-10T10:18:08.237Z,54.60
2018-08-10T10:20:36.733Z,53.50
2018-08-10T10:23:05.259Z,53.00
2018-08-10T10:25:33.736Z,54.00
2018-08-10T10:28:02.322Z,54.90
2018-08-10T10:30:30.569Z,53.80
2018-08-10T10:32:58.575Z,54.50
2018-08-10T10:35:26.637Z,53.30
2018-08-10T10:37:54.968Z,52.90
2018-08-10T10:40:23.440Z,53.20
2018-08-10T10:42:51.742Z,52.10
2018-08-10T10:45:19.927Z,52.60
2018-08-10T10:47:49.237Z,52.90
2018-08-10T10:50:18.216Z,52.10
2018-08-10T10:52:46.225Z,53.60
2018-08-10T10:55:14.659Z,54.00
2018-08-10T10:57:43.397Z,53.20
2018-08-10T11:00:18.598Z,53.10
2018-08-10T11:02:47.526Z,52.00
2018-08-10T11:05:16.049Z,51.90
2018-08-10T11:07:44.753Z,52.90
2018-08-10T11:10:14.312Z,52.10
2018-08-10T11:12:42.616Z,52.20
2018-08-10T11:15:11.587Z,52.70
2018-08-10T11:17:39.553Z,52.90
2018-08-10T11:20:09.099Z,51.80
2018-08-10T11:22:40.367Z,52.20
2018-08-10T11:25:15.530Z,50.00
2018-08-10T11:27:44.514Z,52.30
2018-08-10T11:30:12.988Z,51.50
2018-08-10T11:32:42.604Z,52.80
2018-08-10T11:35:11.784Z,51.40
2018-08-10T11:37:40.276Z,51.50
2018-08-10T11:40:11.028Z,50.80
2018-08-10T11:42:40.038Z,51.30
2018-08-10T11:45:10.189Z,52.40
2018-08-10T11:47:39.252Z,52.40
2018-08-10T11:50:07.612Z,51.90
2018-08-10T11:52:39.275Z,52.90
2018-08-10T11:55:09.357Z,52.50
2018-08-10T11:57:38.904Z,53.40
2018-08-10T12:00:08.763Z,52.40
2018-08-10T12:02:38.341Z,52.60
2018-08-10T12:05:08.443Z,51.90
2018-08-10T12:07:36.583Z,51.20
2018-08-10T12:10:05.536Z,50.20
2018-08-10T12:12:34.186Z,51.40
2018-08-10T12:15:02.585Z,50.90
2018-08-10T12:17:30.410Z,51.60
2018-08-10T12:19:58.673Z,51.20
2018-08-10T12:22:27.361Z,50.80
2018-08-10T12:24:56.232Z,49.30
2018-08-10T12:27:24.785Z,49.40
2018-08-10T12:29:53.021Z,49.90
2018-08-10T12:32:21.419Z,51.10
2018-08-10T12:34:49.931Z,50.20
2018-08-10T12:37:18.234Z,48.60
2018-08-10T12:39:47.250Z,49.40
2018-08-10T12:42:17.319Z,50.80
2018-08-10T12:44:47.418Z,50.00
2018-08-10T12:47:15.402Z,50.80
2018-08-10T12:49:44.360Z,51.60
2018-08-10T12:52:17.470Z,51.50
2018-08-10T12:54:45.785Z,51.00
2018-08-10T12:57:14.437Z,50.80
2018-08-10T12:59:42.682Z,50.70
2018-08-10T13:02:11.924Z,50.70
2018-08-10T13:04:39.893Z,50.50
2018-08-10T13:07:08.905Z,51.60
2018-08-10T13:09:36.862Z,51.00
2018-08-10T13:12:11.978Z,50.00
2018-08-10T13:14:40.886Z,49.30
2018-08-10T13:17:09.681Z,49.60
2018-08-10T13:19:38.586Z,49.70
2018-08-10T13:22:07.369Z,49.10
2018-08-10T13:24:37.136Z,48.40
2018-08-10T13:27:06.217Z,49.20
2018-08-10T13:29:34.348Z,49.10
2018-08-10T13:32:02.674Z,48.70
2018-08-10T13:34:31.568Z,49.80
2018-08-10T13:37:00.162Z,49.70
2018-08-10T13:39:28.922Z,49.40
2018-08-10T13:41:56.913Z,50.20
2018-08-10T13:44:25.619Z,50.00
2018-08-10T13:46:53.920Z,49.30
2018-08-10T13:49:22.381Z,50.80
2018-08-10T13:51:51.282Z,51.60
2018-08-10T13:54:19.841Z,50.50
2018-08-10T13:56:48.750Z,49.40
2018-08-10T13:59:17.021Z,48.80
2018-08-10T14:01:45.221Z,50.00
2018-08-10T14:04:13.542Z,49.90
2018-08-10T14:06:41.969Z,49.10
2018-08-10T14:09:11.517Z,50.30
2018-08-10T14:11:40.603Z,50.80
2018-08-10T14:14:10.030Z,49.60
2018-08-10T14:16:38.796Z,51.10
2018-08-10T14:19:07.003Z,50.50
2018-08-10T14:21:35.884Z,49.80
2018-08-10T14:24:04.253Z,50.00
2018-08-10T14:26:32.461Z,48.80
2018-08-10T14:29:00.554Z,49.00
2018-08-10T14:31:28.892Z,48.80
2018-08-10T14:33:57.110Z,49.70
2018-08-10T14:36:25.351Z,49.20
2018-08-10T14:38:53.610Z,49.70
2018-08-10T14:41:22.032Z,49.80
2018-08-10T14:43:50.314Z,49.50
2018-08-10T14:46:18.677Z,50.10
2018-08-10T14:48:46.671Z,49.80
2018-08-10T14:51:14.612Z,49.30
2018-08-10T14:53:43.132Z,50.00
2018-08-10T14:56:11.104Z,48.40
2018-08-10T14:58:39.173Z,48.80
2018-08-10T15:01:07.104Z,49.40
2018-08-10T15:03:35.339Z,49.10
2018-08-10T15:06:03.303Z,49.30
2018-08-10T15:08:31.459Z,50.10
2018-08-10T15:10:59.746Z,50.20
2018-08-10T15:13:28.035Z,49.80
2018-08-10T15:15:56.111Z,49.70
2018-08-10T15:18:24.282Z,50.50
2018-08-10T15:20:53.273Z,49.80
2018-08-10T15:23:21.871Z,49.20
2018-08-10T15:25:50.511Z,48.90
2018-08-10T15:28:18.794Z,49.30
2018-08-10T15:30:47.291Z,49.80
2018-08-10T15:33:16.370Z,50.00
2018-08-10T15:35:44.196Z,49.10
2018-08-10T15:38:13.764Z,48.90
2018-08-10T15:40:41.970Z,49.20
2018-08-10T15:43:10.090Z,49.40
2018-08-10T15:45:39.382Z,50.20
2018-08-10T15:48:08.468Z,48.40
2018-08-10T15:50:36.576Z,48.90
2018-08-10T15:53:05.313Z,49.60
2018-08-10T15:55:33.701Z,49.40
2018-08-10T15:58:02.697Z,50.60
2018-08-10T16:00:30.803Z,49.60
2018-08-10T16:02:59.072Z,49.80
2018-08-10T16:05:27.381Z,51.00
2018-08-10T16:07:55.588Z,50.60
2018-08-10T16:10:23.971Z,50.70
2018-08-10T16:12:52.262Z,50.50
2018-08-10T16:15:20.150Z,50.20
2018-08-10T16:17:48.937Z,50.40
2018-08-10T16:20:20.612Z,50.30
2018-08-10T16:22:56.619Z,50.50
2018-08-10T16:25:24.607Z,49.90
2018-08-10T16:27:55.094Z,50.40
2018-08-10T16:30:23.661Z,50.10
2018-08-10T16:32:51.680Z,50.60
2018-08-10T16:35:19.959Z,50.20
2018-08-10T16:37:49.530Z,49.40
2018-08-10T16:40:18.869Z,49.70
2018-08-10T16:42:47.736Z,49.00
2018-08-10T16:45:15.939Z,49.80
2018-08-10T16:47:45.894Z,49.70
2018-08-10T16:50:16.625Z,51.00
2018-08-10T16:52:45.199Z,50.60
2018-08-10T16:55:16.408Z,51.20
2018-08-10T16:57:47.910Z,50.40
2018-08-10T17:00:19.824Z,51.20
2018-08-10T17:02:48.344Z,51.10
2018-08-10T17:05:17.510Z,52.30
2018-08-10T17:07:47.505Z,51.60
2018-08-10T17:10:17.701Z,52.50
2018-08-10T17:12:47.192Z,52.50
2018-08-10T17:15:17.867Z,53.60
2018-08-10T17:17:47.294Z,55.00
2018-08-10T17:20:16.879Z,55.00
2018-08-10T17:22:46.098Z,54.60
2018-08-10T17:25:17.181Z,55.10
2018-08-10T17:27:45.564Z,55.30
2018-08-10T17:30:15.030Z,55.50
2018-08-10T17:32:43.775Z,57.20
2018-08-10T17:35:14.875Z,56.60
2018-08-10T17:37:44.937Z,56.70
2018-08-10T17:40:13.187Z,57.00
2018-08-10T17:42:41.627Z,57.50
2018-08-10T17:45:12.731Z,57.40
2018-08-10T17:47:41.175Z,58.70
2018-08-10T17:50:13.448Z,58.70
2018-08-10T17:52:43.661Z,58.50
2018-08-10T17:55:12.254Z,58.40
2018-08-10T17:57:40.315Z,59.10
2018-08-10T18:00:11.478Z,59.10
2018-08-10T18:02:39.730Z,58.60
2018-08-10T18:05:10.329Z,58.50
2018-08-10T18:07:38.898Z,59.00
2018-08-10T18:10:07.445Z,60.70
2018-08-10T18:12:36.106Z,63.00
2018-08-10T18:15:05.963Z,62.20
2018-08-10T18:17:35.489Z,63.20
2018-08-10T18:20:05.709Z,63.30
2018-08-10T18:22:35.032Z,64.70
2018-08-10T18:25:04.177Z,65.40
2018-08-10T18:27:33.119Z,66.10
2018-08-10T18:30:01.722Z,65.90
2018-08-10T18:32:30.148Z,65.50
2018-08-10T18:34:58.475Z,66.40
2018-08-10T18:37:27.152Z,67.70
2018-08-10T18:39:57.427Z,69.90
2018-08-10T18:42:25.803Z,69.20
2018-08-10T18:44:55.289Z,69.10
2018-08-10T18:47:25.444Z,70.00
2018-08-10T18:49:56.062Z,70.30
2018-08-10T18:52:26.868Z,70.30
2018-08-10T18:54:57.382Z,71.20
2018-08-10T18:57:25.562Z,71.60
2018-08-10T18:59:54.261Z,72.10
2018-08-10T19:02:23.164Z,72.50
2018-08-10T19:04:52.508Z,72.60
2018-08-10T19:07:20.853Z,73.00
2018-08-10T19:09:50.346Z,74.00
2018-08-10T19:12:20.405Z,73.80
2018-08-10T19:14:52.853Z,74.30
2018-08-10T19:17:22.824Z,74.30
2018-08-10T19:19:53.990Z,75.20
2018-08-10T19:22:22.509Z,74.80
2018-08-10T19:24:51.906Z,75.50
2018-08-10T19:27:20.567Z,75.70
2018-08-10T19:29:48.713Z,75.60
2018-08-10T19:32:18.745Z,75.70
2018-08-10T19:34:47.689Z,76.00
2018-08-10T19:37:17.002Z,76.00
2018-08-10T19:39:45.361Z,76.50
2018-08-10T19:42:17.744Z,76.90
2018-08-10T19:44:46.407Z,77.00
2018-08-10T19:47:16.647Z,77.20
2018-08-10T19:49:45.392Z,77.50
2018-08-10T19:52:14.363Z,78.00
2018-08-10T19:54:42.487Z,78.30
2018-08-10T19:57:11.992Z,78.40
2018-08-10T19:59:40.730Z,78.60
2018-08-10T20:02:10.812Z,78.60
2018-08-10T20:04:39.174Z,79.20
2018-08-10T20:07:08.461Z,79.60
2018-08-10T20:09:37.327Z,79.80
2018-08-10T20:12:05.423Z,79.70
2018-08-10T20:14:34.744Z,80.10
2018-08-10T20:17:05.275Z,80.10
2018-08-10T20:19:35.179Z,80.90
2018-08-10T20:22:05.251Z,80.70
2018-08-10T20:24:34.069Z,80.70
2018-08-10T20:27:02.517Z,81.50
2018-08-10T20:29:30.959Z,81.50
2018-08-10T20:32:00.742Z,81.60
2018-08-10T20:34:29.823Z,81.80
2018-08-10T20:36:59.163Z,82.40
2018-08-10T20:39:27.681Z,82.50
2018-08-10T20:42:00.441Z,82.40
2018-08-10T20:44:28.755Z,82.50
2018-08-10T20:46:58.218Z,82.70
2018-08-10T20:49:26.572Z,83.90
2018-08-10T20:51:55.048Z,83.30
2018-08-10T20:54:24.151Z,83.20
2018-08-10T20:56:53.747Z,83.40
2018-08-10T20:59:21.871Z,83.60
2018-08-10T21:01:50.878Z,84.20
2018-08-10T21:04:19.675Z,84.30
2018-08-10T21:06:49.052Z,84.30
2018-08-10T21:09:17.937Z,84.90
2018-08-10T21:11:46.749Z,84.70
2018-08-10T21:14:15.572Z,84.90
2018-08-10T21:16:46.507Z,85.70
2018-08-10T21:19:16.595Z,85.30
2018-08-10T21:21:49.061Z,85.50
2018-08-10T21:24:17.511Z,85.80
2018-08-10T21:26:46.821Z,86.00
2018-08-10T21:29:15.313Z,86.90
2018-08-10T21:31:44.942Z,86.90
2018-08-10T21:34:13.302Z,87.00
2018-08-10T21:36:41.992Z,87.50
2018-08-10T21:39:15.632Z,87.30
2018-08-10T21:41:48.287Z,88.00
2018-08-10T21:44:18.806Z,87.90
2018-08-10T21:46:50.486Z,88.20
2018-08-10T21:49:18.530Z,88.40
2018-08-10T21:51:47.429Z,88.60
2018-08-10T21:54:15.501Z,88.70
2018-08-10T21:56:43.755Z,88.90
2018-08-10T21:59:12.016Z,89.10
2018-08-10T22:01:40.402Z,89.30
2018-08-10T22:04:09.160Z,89.40
2018-08-10T22:06:38.313Z,89.70
2018-08-10T22:09:07.274Z,90.10
2018-08-10T22:11:36.491Z,90.30
2018-08-10T22:15:10.293Z,90.50
2018-08-10T22:17:43.975Z,90.60
2018-08-10T22:20:12.897Z,90.90
2018-08-10T22:22:41.231Z,91.10
2018-08-10T22:25:09.536Z,91.00
2018-08-10T22:27:37.417Z,91.20
2018-08-10T22:30:05.746Z,91.30
2018-08-10T22:32:33.920Z,91.50
2018-08-10T22:35:02.025Z,91.70
2018-08-10T22:37:30.516Z,91.90
2018-08-10T22:39:58.673Z,92.00
2018-08-10T22:42:27.497Z,92.20
2018-08-10T22:44:55.838Z,92.30
2018-08-10T22:47:24.065Z,92.50
2018-08-10T22:49:52.505Z,92.80
2018-08-10T22:52:20.922Z,93.00
2018-08-10T22:54:49.459Z,93.00
2018-08-10T22:57:18.176Z,93.20
2018-08-10T22:59:46.506Z,93.30
2018-08-10T23:02:15.067Z,93.30
2018-08-10T23:04:44.262Z,93.30
2018-08-10T23:07:12.705Z,93.50
2018-08-10T23:09:42.636Z,93.40
2018-08-10T23:12:10.745Z,93.40
2018-08-10T23:14:38.773Z,93.60
2018-08-10T23:17:06.775Z,93.70
2018-08-10T23:19:35.090Z,93.90
2018-08-10T23:22:04.168Z,93.90
2018-08-10T23:24:32.344Z,94.10
2018-08-10T23:27:00.154Z,94.10
2018-08-10T23:29:28.126Z,94.30
2018-08-10T23:31:56.059Z,94.40
2018-08-10T23:34:24.151Z,94.40
2018-08-10T23:36:51.874Z,94.80
2018-08-10T23:39:20.123Z,95.00
2018-08-10T23:41:47.916Z,95.10
2018-08-10T23:44:16.010Z,95.50
2018-08-10T23:46:44.175Z,95.70
2018-08-10T23:49:12.124Z,95.70
2018-08-10T23:51:40.094Z,95.50
2018-08-10T23:54:08.486Z,95.40
2018-08-10T23:56:37.353Z,95.50
2018-08-10T23:59:05.413Z,95.60
